Aviation Digital Data Service (ADDS)

Output produced by METARs form (1254 UTC 15 July 2020)
found at http://www.aviationweather.gov/metar/data/
 
Forecast for: LGKR (IOANNIS KAPODIST, GR)
Text: TAF LGKR 151100Z 1512/1612 VRB05KT 9999 FEW015
Forecast period: 1200 UTC 15 July 2020 to 1200 UTC 16 July 2020
Forecast type: FROM: standard forecast or significant change
Winds: variable direction winds at 6 MPH (5 knots; 2.6 m/s)
Visibility: 6 or more miles 10+ km)
Ceiling: at least 12,000 feet AGL
Clouds: few clouds at 1500 feet AGL
Weather: no significant weather forecast for this period